createdAt,value
2023-02-05T00:00:14.732Z,1017.76
2023-02-05T00:01:14.696Z,1017.75
2023-02-05T00:02:14.727Z,1017.75
2023-02-05T00:03:14.719Z,1017.76
2023-02-05T00:04:14.656Z,1017.73
2023-02-05T00:05:14.670Z,1017.75
2023-02-05T00:06:14.637Z,1017.76
2023-02-05T00:07:14.627Z,1017.80
2023-02-05T00:08:14.617Z,1017.80
2023-02-05T00:09:14.610Z,1017.81
2023-02-05T00:10:14.611Z,1017.76
2023-02-05T00:11:14.595Z,1017.81
2023-02-05T00:12:14.579Z,1017.76
2023-02-05T00:13:14.560Z,1017.84
2023-02-05T00:14:14.550Z,1017.82
2023-02-05T00:15:14.561Z,1017.82
2023-02-05T00:16:14.620Z,1017.82
2023-02-05T00:17:14.519Z,1017.75
2023-02-05T00:18:14.509Z,1017.71
2023-02-05T00:19:14.500Z,1017.68
2023-02-05T00:20:14.506Z,1017.58
2023-02-05T00:21:14.483Z,1017.60
2023-02-05T00:22:14.470Z,1017.56
2023-02-05T00:23:14.462Z,1017.53
2023-02-05T00:24:14.447Z,1017.56
2023-02-05T00:25:14.462Z,1017.54
2023-02-05T00:26:14.457Z,1017.55
2023-02-05T00:27:14.426Z,1017.51
2023-02-05T00:28:14.413Z,1017.56
2023-02-05T00:29:14.394Z,1017.54
2023-02-05T00:30:14.403Z,1017.51
2023-02-05T00:31:14.463Z,1017.54
2023-02-05T00:32:14.366Z,1017.47
2023-02-05T00:33:14.354Z,1017.44
2023-02-05T00:34:14.346Z,1017.40
2023-02-05T00:35:14.366Z,1017.33
2023-02-05T00:36:14.354Z,1017.26
2023-02-05T00:37:14.323Z,1017.28
2023-02-05T00:38:14.312Z,1017.27
2023-02-05T00:39:14.293Z,1017.35
2023-02-05T00:40:14.305Z,1017.35
2023-02-05T00:41:14.293Z,1017.35
2023-02-05T00:42:14.258Z,1017.32
2023-02-05T00:43:14.258Z,1017.30
2023-02-05T00:44:14.237Z,1017.25
2023-02-05T00:45:14.259Z,1017.24
2023-02-05T00:46:14.284Z,1017.29
2023-02-05T00:47:14.214Z,1017.26
2023-02-05T00:48:14.200Z,1017.23
2023-02-05T00:49:14.196Z,1017.23
2023-02-05T00:50:14.189Z,1017.18
2023-02-05T00:51:14.170Z,1017.24
2023-02-05T00:52:14.192Z,1017.20
2023-02-05T00:53:14.149Z,1017.20
2023-02-05T00:54:14.138Z,1017.19
2023-02-05T00:55:14.150Z,1017.17
2023-02-05T00:56:14.114Z,1017.13
2023-02-05T00:57:14.110Z,1017.06
2023-02-05T00:58:14.096Z,1017.14
2023-02-05T00:59:14.090Z,1017.07
2023-02-05T01:00:14.093Z,1017.01
2023-02-05T01:01:14.092Z,1017.08
2023-02-05T01:02:14.061Z,1016.98
2023-02-05T01:03:14.054Z,1017.05
2023-02-05T01:04:14.036Z,1017.04
2023-02-05T01:05:14.054Z,1017.04
2023-02-05T01:06:14.016Z,1017.01
2023-02-05T01:07:14.006Z,1016.97
2023-02-05T01:08:14.025Z,1016.97
2023-02-05T01:09:13.992Z,1016.93
2023-02-05T01:10:13.996Z,1016.93
2023-02-05T01:11:13.969Z,1016.91
2023-02-05T01:12:13.955Z,1016.98
2023-02-05T01:13:14.498Z,1016.89
2023-02-05T01:14:13.937Z,1016.89
2023-02-05T01:15:13.957Z,1016.89
2023-02-05T01:16:14.167Z,1016.91
2023-02-05T01:17:13.936Z,1016.88
2023-02-05T01:18:13.909Z,1016.83
2023-02-05T01:19:13.883Z,1016.84
2023-02-05T01:20:13.893Z,1016.85
2023-02-05T01:21:13.870Z,1016.83
2023-02-05T01:22:13.876Z,1016.84
2023-02-05T01:23:13.847Z,1016.82
2023-02-05T01:24:13.832Z,1016.84
2023-02-05T01:25:13.862Z,1016.82
2023-02-05T01:26:13.805Z,1016.79
2023-02-05T01:27:13.805Z,1016.72
2023-02-05T01:28:13.822Z,1016.73
2023-02-05T01:29:13.786Z,1016.69
2023-02-05T01:30:13.787Z,1016.66
2023-02-05T01:31:13.888Z,1016.65
2023-02-05T01:32:13.750Z,1016.68
2023-02-05T01:33:13.747Z,1016.59
2023-02-05T01:34:13.727Z,1016.61
2023-02-05T01:35:13.739Z,1016.54
2023-02-05T01:36:13.718Z,1016.50
2023-02-05T01:37:13.699Z,1016.52
2023-02-05T01:38:13.686Z,1016.55
2023-02-05T01:39:13.684Z,1016.35
2023-02-05T01:40:13.687Z,1016.36
2023-02-05T01:41:13.656Z,1016.37
2023-02-05T01:42:13.649Z,1016.39
2023-02-05T01:43:13.640Z,1016.36
2023-02-05T01:44:13.622Z,1016.29
2023-02-05T01:45:13.635Z,1016.22
2023-02-05T01:46:13.637Z,1016.30
2023-02-05T01:47:13.595Z,1016.22
2023-02-05T01:48:13.593Z,1016.22
2023-02-05T01:49:13.585Z,1016.26
2023-02-05T01:50:13.564Z,1016.34
2023-02-05T01:51:13.599Z,1016.33
2023-02-05T01:52:13.536Z,1016.34
2023-02-05T01:53:13.545Z,1016.32
2023-02-05T01:54:13.516Z,1016.35
2023-02-05T01:55:13.513Z,1016.35
2023-02-05T01:56:13.510Z,1016.40
2023-02-05T01:57:13.486Z,1016.34
2023-02-05T01:58:13.484Z,1016.30
2023-02-05T01:59:13.468Z,1016.31
2023-02-05T02:00:13.454Z,1016.34
2023-02-05T02:01:13.491Z,1016.31
2023-02-05T02:02:13.438Z,1016.36
2023-02-05T02:03:13.450Z,1016.33
2023-02-05T02:04:13.416Z,1016.35
2023-02-05T02:05:13.442Z,1016.35
2023-02-05T02:06:13.410Z,1016.36
2023-02-05T02:07:13.392Z,1016.39
2023-02-05T02:08:13.366Z,1016.39
2023-02-05T02:09:13.408Z,1016.36
2023-02-05T02:10:13.352Z,1016.33
2023-02-05T02:11:13.363Z,1016.35
2023-02-05T02:12:13.331Z,1016.34
2023-02-05T02:13:13.324Z,1016.26
2023-02-05T02:14:13.309Z,1016.28
2023-02-05T02:15:13.302Z,1016.24
2023-02-05T02:16:13.339Z,1016.20
2023-02-05T02:17:13.294Z,1016.20
2023-02-05T02:18:13.262Z,1016.14
2023-02-05T02:19:13.262Z,1016.13
2023-02-05T02:20:13.249Z,1016.17
2023-02-05T02:21:13.272Z,1016.20
2023-02-05T02:22:13.234Z,1016.18
2023-02-05T02:23:13.234Z,1016.20
2023-02-05T02:24:13.203Z,1016.15
2023-02-05T02:25:13.195Z,1016.22
2023-02-05T02:26:13.223Z,1016.18
2023-02-05T02:27:13.190Z,1016.21
2023-02-05T02:28:13.209Z,1016.19
2023-02-05T02:29:13.155Z,1016.17
2023-02-05T02:30:13.150Z,1016.19
2023-02-05T02:31:13.180Z,1016.12
2023-02-05T02:32:13.135Z,1016.12
2023-02-05T02:33:13.118Z,1016.10
2023-02-05T02:34:13.105Z,1016.03
2023-02-05T02:35:13.123Z,1016.01
2023-02-05T02:36:13.107Z,1016.07
2023-02-05T02:37:13.092Z,1016.03
2023-02-05T02:38:13.071Z,1016.04
2023-02-05T02:39:13.057Z,1016.04
2023-02-05T02:40:13.043Z,1016.02
2023-02-05T02:41:13.053Z,1016.02
2023-02-05T02:42:13.047Z,1015.98
2023-02-05T02:43:13.018Z,1016.00
2023-02-05T02:44:12.998Z,1015.97
2023-02-05T02:45:12.989Z,1015.98
2023-02-05T02:46:12.998Z,1016.00
2023-02-05T02:47:12.989Z,1015.95
2023-02-05T02:48:12.967Z,1015.94
2023-02-05T02:49:12.952Z,1015.90
2023-02-05T02:50:12.948Z,1015.85
2023-02-05T02:51:12.954Z,1015.84
2023-02-05T02:52:12.921Z,1015.84
2023-02-05T02:53:12.924Z,1015.85
2023-02-05T02:54:12.897Z,1015.87
2023-02-05T02:55:12.899Z,1015.86
2023-02-05T02:56:12.896Z,1015.84
2023-02-05T02:57:12.877Z,1015.87
2023-02-05T02:58:12.870Z,1015.81
2023-02-05T02:59:12.869Z,1015.84
2023-02-05T03:00:12.843Z,1015.80
2023-02-05T03:01:12.960Z,1015.75
2023-02-05T03:02:12.823Z,1015.72
2023-02-05T03:03:12.817Z,1015.74
2023-02-05T03:04:12.807Z,1015.76
2023-02-05T03:05:12.800Z,1015.76
2023-02-05T03:06:12.798Z,1015.73
2023-02-05T03:07:12.772Z,1015.74
2023-02-05T03:08:12.761Z,1015.70
2023-02-05T03:09:12.754Z,1015.67
2023-02-05T03:10:12.743Z,1015.71
2023-02-05T03:11:12.744Z,1015.71
2023-02-05T03:12:12.723Z,1015.65
2023-02-05T03:13:12.719Z,1015.69
2023-02-05T03:14:12.695Z,1015.69
2023-02-05T03:15:12.700Z,1015.56
2023-02-05T03:16:12.746Z,1015.59
2023-02-05T03:17:12.679Z,1015.68
2023-02-05T03:18:12.662Z,1015.66
2023-02-05T03:19:12.655Z,1015.61
2023-02-05T03:20:12.635Z,1015.64
2023-02-05T03:21:12.666Z,1015.62
2023-02-05T03:22:12.620Z,1015.62
2023-02-05T03:23:12.605Z,1015.69
2023-02-05T03:24:12.595Z,1015.69
2023-02-05T03:25:12.586Z,1015.77
2023-02-05T03:26:12.594Z,1015.76
2023-02-05T03:27:12.568Z,1015.80
2023-02-05T03:28:12.622Z,1015.80
2023-02-05T03:29:12.555Z,1015.75
2023-02-05T03:30:12.541Z,1015.74
2023-02-05T03:31:12.578Z,1015.78
2023-02-05T03:32:12.507Z,1015.80
2023-02-05T03:33:12.509Z,1015.78
2023-02-05T03:34:12.488Z,1015.82
2023-02-05T03:35:12.486Z,1015.79
2023-02-05T03:36:12.492Z,1015.77
2023-02-05T03:37:12.467Z,1015.71
2023-02-05T03:38:12.448Z,1015.69
2023-02-05T03:39:12.452Z,1015.80
2023-02-05T03:40:12.430Z,1015.77
2023-02-05T03:41:12.439Z,1015.77
2023-02-05T03:42:12.410Z,1015.76
2023-02-05T03:43:12.401Z,1015.71
2023-02-05T03:44:12.381Z,1015.71
2023-02-05T03:45:12.382Z,1015.62
2023-02-05T03:46:12.393Z,1015.60
2023-02-05T03:47:12.371Z,1015.62
2023-02-05T03:48:12.358Z,1015.61
2023-02-05T03:49:12.348Z,1015.67
2023-02-05T03:50:12.321Z,1015.65
2023-02-05T03:51:12.344Z,1015.71
2023-02-05T03:52:12.304Z,1015.64
2023-02-05T03:53:12.300Z,1015.65
2023-02-05T03:54:12.282Z,1015.68
2023-02-05T03:55:12.273Z,1015.71
2023-02-05T03:56:12.287Z,1015.77
2023-02-05T03:57:12.252Z,1015.80
2023-02-05T03:58:12.249Z,1015.82
2023-02-05T03:59:12.230Z,1015.84
2023-02-05T04:00:12.225Z,1015.80
2023-02-05T04:01:12.264Z,1015.81
2023-02-05T04:02:12.238Z,1015.79
2023-02-05T04:03:12.193Z,1015.83
2023-02-05T04:04:12.181Z,1015.80
2023-02-05T04:05:12.176Z,1015.80
2023-02-05T04:06:12.174Z,1015.77
2023-02-05T04:07:12.150Z,1015.79
2023-02-05T04:08:12.137Z,1015.77
2023-02-05T04:09:12.134Z,1015.76
2023-02-05T04:10:12.110Z,1015.72
2023-02-05T04:11:12.122Z,1015.59
2023-02-05T04:12:12.098Z,1015.55
2023-02-05T04:13:13.875Z,1015.49
2023-02-05T04:14:12.084Z,1015.53
2023-02-05T04:15:12.064Z,1015.48
2023-02-05T04:16:12.085Z,1015.46
2023-02-05T04:17:12.043Z,1015.41
2023-02-05T04:18:12.055Z,1015.40
2023-02-05T04:19:12.020Z,1015.40
2023-02-05T04:20:12.011Z,1015.45
2023-02-05T04:21:12.013Z,1015.49
2023-02-05T04:22:11.991Z,1015.47
2023-02-05T04:23:11.983Z,1015.45
2023-02-05T04:24:11.988Z,1015.39
2023-02-05T04:25:11.966Z,1015.38
2023-02-05T04:26:11.972Z,1015.39
2023-02-05T04:27:11.942Z,1015.34
2023-02-05T04:28:11.940Z,1015.41
2023-02-05T04:29:11.915Z,1015.43
2023-02-05T04:30:11.919Z,1015.47
2023-02-05T04:31:11.916Z,1015.51
2023-02-05T04:32:11.903Z,1015.54
2023-02-05T04:33:11.880Z,1015.47
2023-02-05T04:34:11.894Z,1015.50
2023-02-05T04:35:11.862Z,1015.45
2023-02-05T04:36:11.874Z,1015.47
2023-02-05T04:37:11.839Z,1015.47
2023-02-05T04:38:11.831Z,1015.49
2023-02-05T04:39:11.822Z,1015.41
2023-02-05T04:40:11.812Z,1015.36
2023-02-05T04:41:11.814Z,1015.36
2023-02-05T04:42:11.792Z,1015.35
2023-02-05T04:43:11.777Z,1015.30
2023-02-05T04:44:11.779Z,1015.34
2023-02-05T04:45:11.757Z,1015.36
2023-02-05T04:46:11.798Z,1015.29
2023-02-05T04:47:11.745Z,1015.34
2023-02-05T04:48:11.729Z,1015.36
2023-02-05T04:49:11.718Z,1015.34
2023-02-05T04:50:11.725Z,1015.35
2023-02-05T04:51:11.706Z,1015.37
2023-02-05T04:52:11.687Z,1015.34
2023-02-05T04:53:11.715Z,1015.36
2023-02-05T04:54:11.667Z,1015.43
2023-02-05T04:55:11.659Z,1015.44
2023-02-05T04:56:11.679Z,1015.49
2023-02-05T04:57:11.639Z,1015.51
2023-02-05T04:58:11.656Z,1015.54
2023-02-05T04:59:11.608Z,1015.65
2023-02-05T05:00:11.608Z,1015.56
2023-02-05T05:01:11.606Z,1015.58
2023-02-05T05:02:11.647Z,1015.63
2023-02-05T05:03:11.569Z,1015.66
2023-02-05T05:04:11.649Z,1015.63
2023-02-05T05:05:11.551Z,1015.66
2023-02-05T05:06:11.550Z,1015.55
2023-02-05T05:07:11.542Z,1015.55
2023-02-05T05:08:11.522Z,1015.49
2023-02-05T05:09:11.515Z,1015.55
2023-02-05T05:10:11.502Z,1015.56
2023-02-05T05:11:11.503Z,1015.57
2023-02-05T05:12:11.518Z,1015.51
2023-02-05T05:13:11.472Z,1015.48
2023-02-05T05:14:11.462Z,1015.50
2023-02-05T05:15:11.442Z,1015.45
2023-02-05T05:16:11.513Z,1015.35
2023-02-05T05:17:11.444Z,1015.36
2023-02-05T05:18:11.423Z,1015.43
2023-02-05T05:19:11.404Z,1015.43
2023-02-05T05:20:11.403Z,1015.38
2023-02-05T05:21:11.390Z,1015.42
2023-02-05T05:22:11.396Z,1015.39
2023-02-05T05:23:11.372Z,1015.42
2023-02-05T05:24:11.362Z,1015.41
2023-02-05T05:25:11.344Z,1015.37
2023-02-05T05:26:11.346Z,1015.31
2023-02-05T05:27:11.342Z,1015.29
2023-02-05T05:28:11.342Z,1015.36
2023-02-05T05:29:11.306Z,1015.27
2023-02-05T05:30:11.300Z,1015.26
2023-02-05T05:31:11.366Z,1015.24
2023-02-05T05:32:11.376Z,1015.18
2023-02-05T05:33:11.273Z,1015.24
2023-02-05T05:34:11.263Z,1015.15
2023-02-05T05:35:11.248Z,1015.18
2023-02-05T05:36:11.238Z,1015.18
2023-02-05T05:37:11.250Z,1015.20
2023-02-05T05:38:11.219Z,1015.21
2023-02-05T05:39:11.200Z,1015.22
2023-02-05T05:40:11.194Z,1015.25
2023-02-05T05:41:11.181Z,1015.27
2023-02-05T05:42:11.203Z,1015.24
2023-02-05T05:43:11.162Z,1015.36
2023-02-05T05:44:11.163Z,1015.35
2023-02-05T05:45:11.152Z,1015.35
2023-02-05T05:46:11.235Z,1015.37
2023-02-05T05:47:11.133Z,1015.38
2023-02-05T05:48:11.118Z,1015.36
2023-02-05T05:49:11.112Z,1015.37
2023-02-05T05:50:11.093Z,1015.38
2023-02-05T05:51:11.084Z,1015.37
2023-02-05T05:52:11.100Z,1015.34
2023-02-05T05:53:11.063Z,1015.32
2023-02-05T05:54:11.054Z,1015.36
2023-02-05T05:55:11.042Z,1015.35
2023-02-05T05:56:11.033Z,1015.36
2023-02-05T05:57:11.041Z,1015.32
2023-02-05T05:58:11.012Z,1015.31
2023-02-05T05:59:11.004Z,1015.30
2023-02-05T06:00:10.986Z,1015.26
2023-02-05T06:01:11.005Z,1015.32
2023-02-05T06:02:11.018Z,1015.28
2023-02-05T06:03:10.952Z,1015.35
2023-02-05T06:04:11.039Z,1015.27
2023-02-05T06:05:10.932Z,1015.27
2023-02-05T06:06:10.922Z,1015.27
2023-02-05T06:07:10.928Z,1015.24
2023-02-05T06:08:10.916Z,1015.27
2023-02-05T06:09:10.894Z,1015.30
2023-02-05T06:10:10.882Z,1015.30
2023-02-05T06:11:10.873Z,1015.27
2023-02-05T06:12:11.821Z,1015.27
2023-02-05T06:13:10.853Z,1015.26
2023-02-05T06:14:10.842Z,1015.21
2023-02-05T06:15:10.842Z,1015.18
2023-02-05T06:16:10.869Z,1015.12
2023-02-05T06:17:10.824Z,1015.15
2023-02-05T06:18:10.807Z,1015.14
2023-02-05T06:19:10.784Z,1015.12
2023-02-05T06:20:10.784Z,1015.09
2023-02-05T06:21:10.807Z,1015.15
2023-02-05T06:22:10.774Z,1015.11
2023-02-05T06:23:10.750Z,1015.11
2023-02-05T06:24:10.754Z,1015.06
2023-02-05T06:25:10.719Z,1015.04
2023-02-05T06:26:10.714Z,1015.00
2023-02-05T06:27:10.715Z,1015.03
2023-02-05T06:28:10.719Z,1015.03
2023-02-05T06:29:10.678Z,1015.06
2023-02-05T06:30:10.670Z,1014.99
2023-02-05T06:31:10.777Z,1014.97
2023-02-05T06:32:10.671Z,1015.02
2023-02-05T06:33:10.639Z,1015.01
2023-02-05T06:34:10.638Z,1014.98
2023-02-05T06:35:10.632Z,1015.00
2023-02-05T06:36:10.613Z,1015.01
2023-02-05T06:37:10.618Z,1015.04
2023-02-05T06:38:10.604Z,1014.98
2023-02-05T06:39:10.583Z,1014.92
2023-02-05T06:40:10.575Z,1014.88
2023-02-05T06:41:10.551Z,1014.90
2023-02-05T06:42:10.586Z,1014.89
2023-02-05T06:43:10.671Z,1014.90
2023-02-05T06:44:10.551Z,1014.91
2023-02-05T06:45:10.524Z,1014.88
2023-02-05T06:46:10.560Z,1014.96
2023-02-05T06:47:10.473Z,1014.90
2023-02-05T06:48:10.504Z,1014.94
2023-02-05T06:49:10.480Z,1014.96
2023-02-05T06:50:10.484Z,1014.90
2023-02-05T06:51:10.457Z,1014.90
2023-02-05T06:52:10.485Z,1014.91
2023-02-05T06:53:11.862Z,1014.87
2023-02-05T06:54:10.437Z,1014.84
2023-02-05T06:55:10.426Z,1014.87
2023-02-05T06:56:10.415Z,1014.85
2023-02-05T06:57:10.424Z,1014.85
2023-02-05T06:58:10.346Z,1014.81
2023-02-05T06:59:10.319Z,1014.80
2023-02-05T07:00:10.312Z,1014.89
2023-02-05T07:01:10.296Z,1014.91
2023-02-05T07:02:10.325Z,1014.87
2023-02-05T07:03:10.346Z,1014.89
2023-02-05T07:04:10.331Z,1014.74
2023-02-05T07:05:10.325Z,1014.84
2023-02-05T07:06:10.309Z,1014.76
2023-02-05T07:07:10.312Z,1014.73
2023-02-05T07:08:10.243Z,1014.73
2023-02-05T07:09:10.230Z,1014.70
2023-02-05T07:10:10.237Z,1014.70
2023-02-05T07:11:10.205Z,1014.63
2023-02-05T07:12:10.225Z,1014.53
2023-02-05T07:13:10.186Z,1014.57
2023-02-05T07:14:10.177Z,1014.58
2023-02-05T07:15:10.156Z,1014.61
2023-02-05T07:16:10.225Z,1014.65
2023-02-05T07:17:10.164Z,1014.63
2023-02-05T07:18:10.137Z,1014.64
2023-02-05T07:19:10.141Z,1014.60
2023-02-05T07:20:10.131Z,1014.60
2023-02-05T07:21:10.103Z,1014.56
2023-02-05T07:22:10.140Z,1014.55
2023-02-05T07:23:10.080Z,1014.47
2023-02-05T07:24:10.081Z,1014.43
2023-02-05T07:25:10.067Z,1014.39
2023-02-05T07:26:10.048Z,1014.37
2023-02-05T07:27:10.058Z,1014.37
2023-02-05T07:28:10.090Z,1014.30
2023-02-05T07:29:10.019Z,1014.31
2023-02-05T07:30:10.014Z,1014.29
2023-02-05T07:31:10.120Z,1014.30
2023-02-05T07:32:10.131Z,1014.26
2023-02-05T07:33:10.008Z,1014.26
2023-02-05T07:34:09.970Z,1014.18
2023-02-05T07:35:09.962Z,1014.16
2023-02-05T07:36:09.957Z,1014.14
2023-02-05T07:37:09.991Z,1014.14
2023-02-05T07:38:09.931Z,1014.07
2023-02-05T07:39:09.911Z,1014.11
2023-02-05T07:40:09.910Z,1014.20
2023-02-05T07:41:09.892Z,1014.29
2023-02-05T07:42:09.903Z,1014.25
2023-02-05T07:43:09.873Z,1014.33
2023-02-05T07:44:09.861Z,1014.32
2023-02-05T07:45:09.847Z,1014.36
2023-02-05T07:46:09.842Z,1014.30
2023-02-05T07:47:09.839Z,1014.33
2023-02-05T07:48:09.826Z,1014.34
2023-02-05T07:49:09.801Z,1014.43
2023-02-05T07:50:09.801Z,1014.43
2023-02-05T07:51:09.781Z,1014.52
2023-02-05T07:52:09.799Z,1014.43
2023-02-05T07:53:09.760Z,1014.46
2023-02-05T07:54:09.758Z,1014.52
2023-02-05T07:55:09.740Z,1014.48
2023-02-05T07:56:09.749Z,1014.52
2023-02-05T07:57:09.740Z,1014.51
2023-02-05T07:58:09.711Z,1014.51
2023-02-05T07:59:09.698Z,1014.46
2023-02-05T08:00:09.761Z,1014.49
2023-02-05T08:01:09.790Z,1014.48
2023-02-05T08:02:09.692Z,1014.39
2023-02-05T08:03:09.658Z,1014.37
2023-02-05T08:04:09.679Z,1014.33
2023-02-05T08:05:09.652Z,1014.30
2023-02-05T08:06:09.648Z,1014.27
2023-02-05T08:07:09.642Z,1014.30
2023-02-05T08:08:09.615Z,1014.30
2023-02-05T08:09:09.593Z,1014.28
2023-02-05T08:10:09.598Z,1014.22
2023-02-05T08:11:09.585Z,1014.26
2023-02-05T08:12:10.322Z,1014.23
2023-02-05T08:13:09.554Z,1014.20
2023-02-05T08:14:09.562Z,1014.16
2023-02-05T08:15:09.537Z,1014.11
2023-02-05T08:16:09.551Z,1014.18
2023-02-05T08:17:09.523Z,1014.19
2023-02-05T08:18:09.526Z,1014.18
2023-02-05T08:19:10.991Z,1014.24
2023-02-05T08:20:09.506Z,1014.23
2023-02-05T08:21:09.486Z,1014.27
2023-02-05T08:22:09.471Z,1014.23
2023-02-05T08:23:09.486Z,1014.27
2023-02-05T08:24:09.448Z,1014.25
2023-02-05T08:25:09.438Z,1014.27
2023-02-05T08:26:09.429Z,1014.23
2023-02-05T08:27:09.424Z,1014.26
2023-02-05T08:28:09.480Z,1014.28
2023-02-05T08:29:09.398Z,1014.27
2023-02-05T08:30:09.390Z,1014.29
2023-02-05T08:31:09.369Z,1014.27
2023-02-05T08:32:09.369Z,1014.28
2023-02-05T08:33:09.384Z,1014.27
2023-02-05T08:34:09.340Z,1014.26
2023-02-05T08:35:09.333Z,1014.36
2023-02-05T08:36:09.327Z,1014.30
2023-02-05T08:37:09.312Z,1014.29
2023-02-05T08:38:09.319Z,1014.33
2023-02-05T08:39:09.292Z,1014.34
2023-02-05T08:40:09.281Z,1014.34
2023-02-05T08:41:09.272Z,1014.41
2023-02-05T08:42:09.253Z,1014.37
2023-02-05T08:43:09.271Z,1014.42
2023-02-05T08:44:09.237Z,1014.36
2023-02-05T08:45:09.231Z,1014.35
2023-02-05T08:46:09.237Z,1014.33
2023-02-05T08:47:09.211Z,1014.31
2023-02-05T08:48:09.213Z,1014.34
2023-02-05T08:49:09.202Z,1014.29
2023-02-05T08:50:09.177Z,1014.30
2023-02-05T08:51:09.176Z,1014.32
2023-02-05T08:52:09.156Z,1014.27
2023-02-05T08:53:09.181Z,1014.28
2023-02-05T08:54:09.139Z,1014.33
2023-02-05T08:55:09.125Z,1014.27
2023-02-05T08:56:09.124Z,1014.25
2023-02-05T08:57:09.117Z,1014.21
2023-02-05T08:58:09.107Z,1014.22
2023-02-05T08:59:09.103Z,1014.23
2023-02-05T09:00:09.098Z,1014.21
2023-02-05T09:01:09.083Z,1014.22
2023-02-05T09:02:09.048Z,1014.19
2023-02-05T09:03:09.062Z,1014.24
2023-02-05T09:04:09.073Z,1014.20
2023-02-05T09:05:09.847Z,1014.21
2023-02-05T09:06:09.008Z,1014.22
2023-02-05T09:07:09.003Z,1014.23
2023-02-05T09:08:09.012Z,1014.22
2023-02-05T09:09:08.987Z,1014.18
2023-02-05T09:10:08.970Z,1014.19
2023-02-05T09:11:08.965Z,1014.22
2023-02-05T09:12:08.943Z,1014.16
2023-02-05T09:13:08.960Z,1014.17
2023-02-05T09:14:08.933Z,1014.19
2023-02-05T09:15:08.952Z,1014.19
2023-02-05T09:16:08.901Z,1014.15
2023-02-05T09:17:08.906Z,1014.21
2023-02-05T09:18:08.921Z,1014.13
2023-02-05T09:19:08.885Z,1014.18
2023-02-05T09:20:08.880Z,1014.15
2023-02-05T09:21:08.864Z,1014.18
2023-02-05T09:22:08.844Z,1014.15
2023-02-05T09:23:08.864Z,1014.09
2023-02-05T09:24:08.829Z,1014.10
2023-02-05T09:25:08.825Z,1014.09
2023-02-05T09:26:08.807Z,1014.14
2023-02-05T09:27:08.798Z,1014.09
2023-02-05T09:28:08.815Z,1014.09
2023-02-05T09:29:08.780Z,1014.14
2023-02-05T09:30:08.796Z,1014.14
2023-02-05T09:31:08.855Z,1014.11
2023-02-05T09:32:08.751Z,1014.11
2023-02-05T09:33:08.760Z,1014.06
2023-02-05T09:34:08.729Z,1014.11
2023-02-05T09:35:08.722Z,1014.04
2023-02-05T09:36:08.708Z,1014.09
2023-02-05T09:37:08.703Z,1014.12
2023-02-05T09:38:08.700Z,1014.16
2023-02-05T09:39:20.574Z,1014.13
2023-02-05T09:40:20.647Z,1014.15
2023-02-05T09:41:09.654Z,1014.15
2023-02-05T09:42:08.664Z,1014.17
2023-02-05T09:43:08.654Z,1014.16
2023-02-05T09:44:08.627Z,1014.13
2023-02-05T09:45:08.613Z,1014.17
2023-02-05T09:46:08.649Z,1014.12
2023-02-05T09:47:08.600Z,1014.15
2023-02-05T09:48:08.594Z,1014.10
2023-02-05T09:49:08.575Z,1014.10
2023-02-05T09:50:08.564Z,1014.07
2023-02-05T09:51:08.563Z,1014.09
2023-02-05T09:52:08.540Z,1014.07
2023-02-05T09:53:08.557Z,1014.01
2023-02-05T09:54:08.520Z,1014.00
2023-02-05T09:55:08.517Z,1014.02
2023-02-05T09:56:08.505Z,1014.03
2023-02-05T09:57:08.493Z,1014.10
2023-02-05T09:58:08.505Z,1014.09
2023-02-05T09:59:08.559Z,1014.09
2023-02-05T10:00:08.456Z,1014.09
2023-02-05T10:01:08.493Z,1014.09
2023-02-05T10:02:08.436Z,1014.02
2023-02-05T10:03:08.446Z,1014.05
2023-02-05T10:04:08.488Z,1013.98
2023-02-05T10:05:08.413Z,1014.02
2023-02-05T10:06:08.397Z,1014.02
2023-02-05T10:07:08.384Z,1014.01
2023-02-05T10:08:08.385Z,1014.00
2023-02-05T10:09:08.378Z,1014.04
2023-02-05T10:10:08.350Z,1014.03
2023-02-05T10:11:08.346Z,1014.01
2023-02-05T10:12:08.325Z,1013.99
2023-02-05T10:13:08.365Z,1014.02
2023-02-05T10:14:08.307Z,1014.00
2023-02-05T10:15:08.309Z,1014.02
2023-02-05T10:16:08.340Z,1014.02
2023-02-05T10:17:08.288Z,1014.01
2023-02-05T10:18:08.289Z,1013.95
2023-02-05T10:19:08.257Z,1013.95
2023-02-05T10:20:08.258Z,1013.95
2023-02-05T10:21:08.237Z,1013.92
2023-02-05T10:22:08.228Z,1013.90
2023-02-05T10:23:08.239Z,1013.94
2023-02-05T10:24:08.199Z,1013.94
2023-02-05T10:25:08.209Z,1013.94
2023-02-05T10:26:08.179Z,1013.95
2023-02-05T10:27:08.186Z,1014.00
2023-02-05T10:28:08.210Z,1013.98
2023-02-05T10:29:08.168Z,1013.98
2023-02-05T10:30:08.143Z,1013.94
2023-02-05T10:31:08.231Z,1013.93
2023-02-05T10:32:08.133Z,1013.88
2023-02-05T10:33:08.137Z,1013.86
2023-02-05T10:34:08.107Z,1013.92
2023-02-05T10:35:08.103Z,1013.90
2023-02-05T10:36:08.084Z,1013.84
2023-02-05T10:38:08.087Z,1013.84
2023-02-05T10:39:08.066Z,1013.82
2023-02-05T10:40:08.036Z,1013.84
2023-02-05T10:41:08.039Z,1013.84
2023-02-05T10:42:08.016Z,1013.82
2023-02-05T10:43:08.036Z,1013.80
2023-02-05T10:44:07.996Z,1013.83
2023-02-05T10:45:07.990Z,1013.84
2023-02-05T10:46:07.982Z,1013.83
2023-02-05T10:47:07.967Z,1013.82
2023-02-05T10:48:07.982Z,1013.79
2023-02-05T10:49:07.951Z,1013.78
2023-02-05T10:50:07.946Z,1013.78
2023-02-05T10:51:07.929Z,1013.75
2023-02-05T10:52:07.919Z,1013.81
2023-02-05T10:53:07.927Z,1013.81
2023-02-05T10:54:07.888Z,1013.77
2023-02-05T10:55:07.888Z,1013.78
2023-02-05T10:56:07.871Z,1013.78
2023-02-05T10:57:07.870Z,1013.80
2023-02-05T10:58:07.856Z,1013.84
2023-02-05T10:59:07.869Z,1013.82
2023-02-05T11:00:07.872Z,1013.79
2023-02-05T11:01:07.831Z,1013.77
2023-02-05T11:02:07.814Z,1013.74
2023-02-05T11:03:07.806Z,1013.79
2023-02-05T11:04:07.807Z,1013.74
2023-02-05T11:05:07.790Z,1013.81
2023-02-05T11:06:07.775Z,1013.77
2023-02-05T11:07:07.765Z,1013.73
2023-02-05T11:08:07.761Z,1013.72
2023-02-05T11:09:07.771Z,1013.75
2023-02-05T11:10:07.734Z,1013.74
2023-02-05T11:11:07.741Z,1013.74
2023-02-05T11:12:07.706Z,1013.65
2023-02-05T11:13:07.703Z,1013.62
2023-02-05T11:14:07.706Z,1013.69
2023-02-05T11:15:07.683Z,1013.65
2023-02-05T11:16:07.684Z,1013.65
2023-02-05T11:17:07.685Z,1013.56
2023-02-05T11:18:07.655Z,1013.53
2023-02-05T11:19:07.654Z,1013.54
2023-02-05T11:20:07.625Z,1013.48
2023-02-05T11:21:07.614Z,1013.55
2023-02-05T11:22:07.611Z,1013.56
2023-02-05T11:23:07.609Z,1013.55
2023-02-05T11:24:07.730Z,1013.58
2023-02-05T11:25:07.594Z,1013.54
2023-02-05T11:26:07.567Z,1013.59
2023-02-05T11:27:07.572Z,1013.58
2023-02-05T11:28:07.575Z,1013.56
2023-02-05T11:29:07.554Z,1013.55
2023-02-05T11:30:07.516Z,1013.56
2023-02-05T11:31:07.578Z,1013.58
2023-02-05T11:32:07.541Z,1013.52
2023-02-05T11:33:07.498Z,1013.59
2023-02-05T11:34:07.519Z,1013.54
2023-02-05T11:35:07.481Z,1013.59
2023-02-05T11:36:07.462Z,1013.54
2023-02-05T11:37:07.460Z,1013.49
2023-02-05T11:38:07.438Z,1013.50
2023-02-05T11:39:07.457Z,1013.55
2023-02-05T11:40:07.422Z,1013.59
2023-02-05T11:41:07.416Z,1013.55
2023-02-05T11:42:07.401Z,1013.56
2023-02-05T11:43:07.403Z,1013.59
2023-02-05T11:44:07.405Z,1013.56
2023-02-05T11:45:07.381Z,1013.57
2023-02-05T11:46:07.378Z,1013.55
2023-02-05T11:47:07.351Z,1013.60
2023-02-05T11:48:07.333Z,1013.55
2023-02-05T11:49:07.343Z,1013.60
2023-02-05T11:50:07.313Z,1013.61
2023-02-05T11:51:07.313Z,1013.61
2023-02-05T11:52:07.292Z,1013.68
2023-02-05T11:53:07.283Z,1013.69
2023-02-05T11:54:07.303Z,1013.64
2023-02-05T11:55:07.285Z,1013.64
2023-02-05T11:56:07.255Z,1013.70
2023-02-05T11:57:07.248Z,1013.66
2023-02-05T11:58:07.236Z,1013.67
2023-02-05T11:59:07.245Z,1013.65
2023-02-05T12:00:07.221Z,1013.72
2023-02-05T12:01:07.208Z,1013.72
2023-02-05T12:02:07.205Z,1013.72
2023-02-05T12:03:07.215Z,1013.72
2023-02-05T12:04:07.189Z,1013.74
2023-02-05T12:05:07.174Z,1013.75
2023-02-05T12:06:07.151Z,1013.76